sensor_id;sensor_type;location;lat;lon;timestamp;temperature;humidity
54846;DHT22;53889;50.084;8.646;2022-07-29T00:00:38;23.40;54.50
54846;DHT22;53889;50.084;8.646;2022-07-29T00:05:32;23.40;53.90
54846;DHT22;53889;50.084;8.646;2022-07-29T00:08:01;23.40;54.00
54846;DHT22;53889;50.084;8.646;2022-07-29T00:10:27;20.70;52.60
54846;DHT22;53889;50.084;8.646;2022-07-29T00:12:54;23.40;53.80
54846;DHT22;53889;50.084;8.646;2022-07-29T00:20:15;23.30;54.20
54846;DHT22;53889;50.084;8.646;2022-07-29T00:22:42;23.30;54.50
54846;DHT22;53889;50.084;8.646;2022-07-29T00:25:12;23.30;55.00
54846;DHT22;53889;50.084;8.646;2022-07-29T00:27:39;23.10;55.50
54846;DHT22;53889;50.084;8.646;2022-07-29T00:30:07;24.30;56.60
54846;DHT22;53889;50.084;8.646;2022-07-29T00:37:46;22.90;55.00
54846;DHT22;53889;50.084;8.646;2022-07-29T00:42:42;22.90;55.00
54846;DHT22;53889;50.084;8.646;2022-07-29T00:45:09;26.60;57.50
54846;DHT22;53889;50.084;8.646;2022-07-29T00:50:05;23.00;54.40
54846;DHT22;53889;50.084;8.646;2022-07-29T00:52:32;23.00;55.30
54846;DHT22;53889;50.084;8.646;2022-07-29T00:54:59;23.00;55.20
54846;DHT22;53889;50.084;8.646;2022-07-29T00:57:27;25.50;56.30
54846;DHT22;53889;50.084;8.646;2022-07-29T01:07:16;23.10;54.20
54846;DHT22;53889;50.084;8.646;2022-07-29T01:09:44;23.10;54.10
54846;DHT22;53889;50.084;8.646;2022-07-29T01:12:13;23.00;53.90
54846;DHT22;53889;50.084;8.646;2022-07-29T01:14:43;23.00;54.00
54846;DHT22;53889;50.084;8.646;2022-07-29T01:17:12;23.50;54.70
54846;DHT22;53889;50.084;8.646;2022-07-29T01:19:48;23.20;54.30
54846;DHT22;53889;50.084;8.646;2022-07-29T01:22:29;23.10;54.20
54846;DHT22;53889;50.084;8.646;2022-07-29T01:25:17;23.10;53.90
54846;DHT22;53889;50.084;8.646;2022-07-29T01:27:57;23.10;53.30
54846;DHT22;53889;50.084;8.646;2022-07-29T01:30:32;23.10;53.80
54846;DHT22;53889;50.084;8.646;2022-07-29T01:33:05;23.10;54.00
54846;DHT22;53889;50.084;8.646;2022-07-29T01:35:38;23.10;54.00
54846;DHT22;53889;50.084;8.646;2022-07-29T01:38:09;23.10;54.10
54846;DHT22;53889;50.084;8.646;2022-07-29T01:40:42;23.10;54.20
54846;DHT22;53889;50.084;8.646;2022-07-29T01:43:12;23.10;53.70
54846;DHT22;53889;50.084;8.646;2022-07-29T01:45:43;23.00;54.10
54846;DHT22;53889;50.084;8.646;2022-07-29T01:48:15;23.10;54.10
54846;DHT22;53889;50.084;8.646;2022-07-29T01:50:47;23.00;54.10
54846;DHT22;53889;50.084;8.646;2022-07-29T01:53:18;25.40;55.60
54846;DHT22;53889;50.084;8.646;2022-07-29T01:58:17;22.90;54.10
54846;DHT22;53889;50.084;8.646;2022-07-29T02:00:47;26.10;56.50
54846;DHT22;53889;50.084;8.646;2022-07-29T02:03:15;22.90;54.60
54846;DHT22;53889;50.084;8.646;2022-07-29T02:05:44;22.80;54.80
54846;DHT22;53889;50.084;8.646;2022-07-29T02:08:13;22.70;54.70
54846;DHT22;53889;50.084;8.646;2022-07-29T02:10:42;22.80;55.00
54846;DHT22;53889;50.084;8.646;2022-07-29T02:13:10;22.70;55.70
54846;DHT22;53889;50.084;8.646;2022-07-29T02:15:38;22.70;55.70
54846;DHT22;53889;50.084;8.646;2022-07-29T02:18:12;22.60;56.20
54846;DHT22;53889;50.084;8.646;2022-07-29T02:20:39;23.00;57.00
54846;DHT22;53889;50.084;8.646;2022-07-29T02:23:07;22.60;56.40
54846;DHT22;53889;50.084;8.646;2022-07-29T02:25:37;22.60;56.70
54846;DHT22;53889;50.084;8.646;2022-07-29T02:28:05;22.80;56.80
54846;DHT22;53889;50.084;8.646;2022-07-29T02:33:00;22.70;56.80
54846;DHT22;53889;50.084;8.646;2022-07-29T02:35:29;22.60;57.40
54846;DHT22;53889;50.084;8.646;2022-07-29T02:40:42;22.40;58.20
54846;DHT22;53889;50.084;8.646;2022-07-29T02:43:09;22.40;58.70
54846;DHT22;53889;50.084;8.646;2022-07-29T02:45:37;22.30;59.10
54846;DHT22;53889;50.084;8.646;2022-07-29T02:48:09;22.40;59.40
54846;DHT22;53889;50.084;8.646;2022-07-29T02:50:40;22.30;59.60
54846;DHT22;53889;50.084;8.646;2022-07-29T02:53:12;19.90;58.80
54846;DHT22;53889;50.084;8.646;2022-07-29T02:55:45;22.30;60.30
54846;DHT22;53889;50.084;8.646;2022-07-29T02:58:19;24.00;61.70
54846;DHT22;53889;50.084;8.646;2022-07-29T03:00:49;22.20;60.50
54846;DHT22;53889;50.084;8.646;2022-07-29T03:03:19;22.10;60.80
54846;DHT22;53889;50.084;8.646;2022-07-29T03:10:44;21.90;61.70
54846;DHT22;53889;50.084;8.646;2022-07-29T03:13:12;21.90;62.20
54846;DHT22;53889;50.084;8.646;2022-07-29T03:15:40;22.10;62.40
54846;DHT22;53889;50.084;8.646;2022-07-29T03:20:37;21.80;62.10
54846;DHT22;53889;50.084;8.646;2022-07-29T03:40:22;21.70;63.70
54846;DHT22;53889;50.084;8.646;2022-07-29T03:42:51;21.60;64.20
54846;DHT22;53889;50.084;8.646;2022-07-29T03:45:21;21.50;65.10
54846;DHT22;53889;50.084;8.646;2022-07-29T03:47:52;21.40;65.50
54846;DHT22;53889;50.084;8.646;2022-07-29T03:52:47;21.30;66.20
54846;DHT22;53889;50.084;8.646;2022-07-29T03:57:45;21.10;67.30
54846;DHT22;53889;50.084;8.646;2022-07-29T04:00:12;21.10;67.80
54846;DHT22;53889;50.084;8.646;2022-07-29T04:02:41;21.10;68.10
54846;DHT22;53889;50.084;8.646;2022-07-29T04:05:12;21.00;68.60
54846;DHT22;53889;50.084;8.646;2022-07-29T04:07:39;20.80;69.20
54846;DHT22;53889;50.084;8.646;2022-07-29T04:10:07;20.80;69.70
54846;DHT22;53889;50.084;8.646;2022-07-29T04:12:34;20.80;70.20
54846;DHT22;53889;50.084;8.646;2022-07-29T04:15:17;22.90;71.50
54846;DHT22;53889;50.084;8.646;2022-07-29T04:20:11;20.70;70.30
54846;DHT22;53889;50.084;8.646;2022-07-29T04:22:38;20.70;71.00
54846;DHT22;53889;50.084;8.646;2022-07-29T04:25:06;21.00;71.20
54846;DHT22;53889;50.084;8.646;2022-07-29T04:27:33;20.50;70.70
54846;DHT22;53889;50.084;8.646;2022-07-29T04:32:28;20.50;70.40
54846;DHT22;53889;50.084;8.646;2022-07-29T04:37:22;20.50;70.30
54846;DHT22;53889;50.084;8.646;2022-07-29T04:47:11;20.60;69.00
54846;DHT22;53889;50.084;8.646;2022-07-29T04:49:39;20.60;69.00
54846;DHT22;53889;50.084;8.646;2022-07-29T04:57:00;20.80;67.40
54846;DHT22;53889;50.084;8.646;2022-07-29T05:01:54;21.50;65.20
54846;DHT22;53889;50.084;8.646;2022-07-29T05:04:21;21.90;64.10
54846;DHT22;53889;50.084;8.646;2022-07-29T05:06:49;23.50;64.00
54846;DHT22;53889;50.084;8.646;2022-07-29T05:09:16;22.70;62.20
54846;DHT22;53889;50.084;8.646;2022-07-29T05:11:43;23.10;61.10
54846;DHT22;53889;50.084;8.646;2022-07-29T05:16:37;23.40;59.60
54846;DHT22;53889;50.084;8.646;2022-07-29T05:21:32;23.90;58.30
54846;DHT22;53889;50.084;8.646;2022-07-29T05:24:00;24.30;58.10
54846;DHT22;53889;50.084;8.646;2022-07-29T05:26:27;25.40;58.00
54846;DHT22;53889;50.084;8.646;2022-07-29T05:28:54;24.80;56.90
54846;DHT22;53889;50.084;8.646;2022-07-29T05:31:22;24.90;56.80
54846;DHT22;53889;50.084;8.646;2022-07-29T05:33:49;25.30;55.70
54846;DHT22;53889;50.084;8.646;2022-07-29T05:36:15;26.90;56.70
54846;DHT22;53889;50.084;8.646;2022-07-29T05:38:42;25.90;55.60
54846;DHT22;53889;50.084;8.646;2022-07-29T05:41:10;25.80;55.50
54846;DHT22;53889;50.084;8.646;2022-07-29T05:43:37;26.00;55.80
54846;DHT22;53889;50.084;8.646;2022-07-29T05:46:03;26.10;54.90
54846;DHT22;53889;50.084;8.646;2022-07-29T05:48:31;26.40;54.50
54846;DHT22;53889;50.084;8.646;2022-07-29T05:50:57;28.00;55.30
54846;DHT22;53889;50.084;8.646;2022-07-29T05:53:24;26.90;54.30
54846;DHT22;53889;50.084;8.646;2022-07-29T05:55:51;26.90;54.10
54846;DHT22;53889;50.084;8.646;2022-07-29T05:58:19;27.10;53.90
54846;DHT22;53889;50.084;8.646;2022-07-29T06:00:46;27.20;54.10
54846;DHT22;53889;50.084;8.646;2022-07-29T06:10:35;27.30;51.20
54846;DHT22;53889;50.084;8.646;2022-07-29T06:13:02;28.60;53.20
54846;DHT22;53889;50.084;8.646;2022-07-29T06:15:30;27.20;51.20
54846;DHT22;53889;50.084;8.646;2022-07-29T06:17:57;29.90;53.30
54846;DHT22;53889;50.084;8.646;2022-07-29T06:20:24;28.10;51.50
54846;DHT22;53889;50.084;8.646;2022-07-29T06:22:52;28.40;50.50
54846;DHT22;53889;50.084;8.646;2022-07-29T06:25:19;28.20;50.00
54846;DHT22;53889;50.084;8.646;2022-07-29T06:27:45;28.60;49.30
54846;DHT22;53889;50.084;8.646;2022-07-29T06:30:12;28.60;49.90
54846;DHT22;53889;50.084;8.646;2022-07-29T06:32:41;28.90;49.50
54846;DHT22;53889;50.084;8.646;2022-07-29T06:35:09;29.40;49.00
54846;DHT22;53889;50.084;8.646;2022-07-29T06:40:04;29.20;48.40
54846;DHT22;53889;50.084;8.646;2022-07-29T06:42:49;29.60;50.20
54846;DHT22;53889;50.084;8.646;2022-07-29T06:47:44;30.00;47.40
54846;DHT22;53889;50.084;8.646;2022-07-29T06:50:12;30.60;49.80
54846;DHT22;53889;50.084;8.646;2022-07-29T06:55:08;29.70;46.70
54846;DHT22;53889;50.084;8.646;2022-07-29T06:57:34;29.30;47.60
54846;DHT22;53889;50.084;8.646;2022-07-29T07:00:02;29.70;47.70
54846;DHT22;53889;50.084;8.646;2022-07-29T07:02:30;29.70;47.80
54846;DHT22;53889;50.084;8.646;2022-07-29T07:04:58;30.70;45.90
54846;DHT22;53889;50.084;8.646;2022-07-29T07:07:25;30.70;46.90
54846;DHT22;53889;50.084;8.646;2022-07-29T07:12:22;31.20;45.10
54846;DHT22;53889;50.084;8.646;2022-07-29T07:22:12;30.70;45.80
54846;DHT22;53889;50.084;8.646;2022-07-29T07:24:39;32.00;47.70
54846;DHT22;53889;50.084;8.646;2022-07-29T07:27:06;30.50;46.50
54846;DHT22;53889;50.084;8.646;2022-07-29T07:32:01;30.30;46.30
54846;DHT22;53889;50.084;8.646;2022-07-29T07:34:28;30.60;46.50
54846;DHT22;53889;50.084;8.646;2022-07-29T07:36:56;31.20;45.80
54846;DHT22;53889;50.084;8.646;2022-07-29T07:39:24;31.30;45.70
54846;DHT22;53889;50.084;8.646;2022-07-29T07:41:51;32.00;45.00
54846;DHT22;53889;50.084;8.646;2022-07-29T07:44:18;31.90;45.20
54846;DHT22;53889;50.084;8.646;2022-07-29T07:46:45;33.60;46.80
54846;DHT22;53889;50.084;8.646;2022-07-29T07:49:12;31.60;45.70
54846;DHT22;53889;50.084;8.646;2022-07-29T07:51:39;32.40;45.00
54846;DHT22;53889;50.084;8.646;2022-07-29T07:54:07;31.90;44.80
54846;DHT22;53889;50.084;8.646;2022-07-29T07:56:35;32.20;45.10
54846;DHT22;53889;50.084;8.646;2022-07-29T07:59:03;33.90;45.80
54846;DHT22;53889;50.084;8.646;2022-07-29T08:01:30;32.50;44.20
54846;DHT22;53889;50.084;8.646;2022-07-29T08:03:57;32.70;44.50
54846;DHT22;53889;50.084;8.646;2022-07-29T08:06:24;33.20;43.70
54846;DHT22;53889;50.084;8.646;2022-07-29T08:11:20;33.40;42.50
54846;DHT22;53889;50.084;8.646;2022-07-29T08:13:49;34.00;42.10
54846;DHT22;53889;50.084;8.646;2022-07-29T08:18:59;34.00;41.90
54846;DHT22;53889;50.084;8.646;2022-07-29T08:21:28;33.50;42.70
54846;DHT22;53889;50.084;8.646;2022-07-29T08:26:44;33.50;42.20
54846;DHT22;53889;50.084;8.646;2022-07-29T08:29:13;33.50;42.90
54846;DHT22;53889;50.084;8.646;2022-07-29T08:31:40;33.30;43.40
54846;DHT22;53889;50.084;8.646;2022-07-29T08:34:07;36.30;47.20
54846;DHT22;53889;50.084;8.646;2022-07-29T08:36:35;33.50;43.80
54846;DHT22;53889;50.084;8.646;2022-07-29T08:39:02;33.90;43.20
54846;DHT22;53889;50.084;8.646;2022-07-29T08:41:30;33.90;42.90
54846;DHT22;53889;50.084;8.646;2022-07-29T08:46:26;32.80;44.00
54846;DHT22;53889;50.084;8.646;2022-07-29T08:51:21;32.70;44.00
54846;DHT22;53889;50.084;8.646;2022-07-29T08:53:49;33.00;44.30
54846;DHT22;53889;50.084;8.646;2022-07-29T08:56:17;32.50;44.30
54846;DHT22;53889;50.084;8.646;2022-07-29T09:01:14;32.00;45.40
54846;DHT22;53889;50.084;8.646;2022-07-29T09:03:44;31.90;45.50
54846;DHT22;53889;50.084;8.646;2022-07-29T09:06:13;31.40;46.70
54846;DHT22;53889;50.084;8.646;2022-07-29T09:08:40;31.40;46.90
54846;DHT22;53889;50.084;8.646;2022-07-29T09:13:37;31.80;46.10
54846;DHT22;53889;50.084;8.646;2022-07-29T09:16:05;32.50;49.00
54846;DHT22;53889;50.084;8.646;2022-07-29T09:18:35;32.10;45.90
54846;DHT22;53889;50.084;8.646;2022-07-29T09:21:04;32.90;45.30
54846;DHT22;53889;50.084;8.646;2022-07-29T09:24:00;33.30;46.90
54846;DHT22;53889;50.084;8.646;2022-07-29T09:26:28;33.30;45.50
54846;DHT22;53889;50.084;8.646;2022-07-29T09:28:57;34.10;45.20
54846;DHT22;53889;50.084;8.646;2022-07-29T09:31:43;33.70;44.30
54846;DHT22;53889;50.084;8.646;2022-07-29T09:34:14;33.70;44.20
54846;DHT22;53889;50.084;8.646;2022-07-29T09:36:44;35.20;45.10
54846;DHT22;53889;50.084;8.646;2022-07-29T09:41:47;33.10;45.10
54846;DHT22;53889;50.084;8.646;2022-07-29T09:44:15;33.30;45.40
54846;DHT22;53889;50.084;8.646;2022-07-29T09:46:54;33.40;45.70
54846;DHT22;53889;50.084;8.646;2022-07-29T09:49:22;33.30;45.30
54846;DHT22;53889;50.084;8.646;2022-07-29T09:52:01;34.40;44.50
54846;DHT22;53889;50.084;8.646;2022-07-29T09:54:29;35.60;45.70
54846;DHT22;53889;50.084;8.646;2022-07-29T09:57:02;34.20;44.50
54846;DHT22;53889;50.084;8.646;2022-07-29T10:04:36;34.10;44.70
54846;DHT22;53889;50.084;8.646;2022-07-29T10:07:05;34.30;44.80
54846;DHT22;53889;50.084;8.646;2022-07-29T10:09:35;35.10;45.80
54846;DHT22;53889;50.084;8.646;2022-07-29T10:12:07;34.70;44.70
54846;DHT22;53889;50.084;8.646;2022-07-29T10:14:35;34.10;45.20
54846;DHT22;53889;50.084;8.646;2022-07-29T10:17:03;34.40;44.80
54846;DHT22;53889;50.084;8.646;2022-07-29T10:19:32;34.80;44.50
54846;DHT22;53889;50.084;8.646;2022-07-29T10:22:08;36.00;44.60
54846;DHT22;53889;50.084;8.646;2022-07-29T10:24:37;36.20;43.60
54846;DHT22;53889;50.084;8.646;2022-07-29T10:27:06;36.60;43.50
54846;DHT22;53889;50.084;8.646;2022-07-29T10:35:11;36.40;43.40
54846;DHT22;53889;50.084;8.646;2022-07-29T10:40:52;36.30;45.60
54846;DHT22;53889;50.084;8.646;2022-07-29T10:43:43;36.70;44.10
54846;DHT22;53889;50.084;8.646;2022-07-29T10:46:15;37.00;42.40
54846;DHT22;53889;50.084;8.646;2022-07-29T10:49:08;37.00;42.90
54846;DHT22;53889;50.084;8.646;2022-07-29T10:51:53;37.00;42.50
54846;DHT22;53889;50.084;8.646;2022-07-29T10:57:20;35.70;43.20
54846;DHT22;53889;50.084;8.646;2022-07-29T10:59:48;35.40;44.40
54846;DHT22;53889;50.084;8.646;2022-07-29T11:02:41;36.40;42.70
54846;DHT22;53889;50.084;8.646;2022-07-29T11:05:09;36.20;42.80
54846;DHT22;53889;50.084;8.646;2022-07-29T11:07:39;35.60;43.60
54846;DHT22;53889;50.084;8.646;2022-07-29T11:10:23;35.30;44.40
54846;DHT22;53889;50.084;8.646;2022-07-29T11:12:51;35.50;44.20
54846;DHT22;53889;50.084;8.646;2022-07-29T11:15:20;36.60;43.30
54846;DHT22;53889;50.084;8.646;2022-07-29T11:18:07;37.30;42.50
54846;DHT22;53889;50.084;8.646;2022-07-29T11:20:36;37.50;42.30
54846;DHT22;53889;50.084;8.646;2022-07-29T11:23:21;38.00;41.70
54846;DHT22;53889;50.084;8.646;2022-07-29T11:26:18;37.90;41.80
54846;DHT22;53889;50.084;8.646;2022-07-29T11:29:03;38.50;41.10
54846;DHT22;53889;50.084;8.646;2022-07-29T11:31:35;38.20;41.50
54846;DHT22;53889;50.084;8.646;2022-07-29T11:34:21;37.00;42.20
54846;DHT22;53889;50.084;8.646;2022-07-29T11:40:12;37.40;42.50
54846;DHT22;53889;50.084;8.646;2022-07-29T11:42:42;37.60;42.00
54846;DHT22;53889;50.084;8.646;2022-07-29T11:45:12;37.30;42.20
54846;DHT22;53889;50.084;8.646;2022-07-29T11:47:41;37.40;41.90
54846;DHT22;53889;50.084;8.646;2022-07-29T11:50:15;36.90;41.80
54846;DHT22;53889;50.084;8.646;2022-07-29T11:52:43;36.90;42.20
54846;DHT22;53889;50.084;8.646;2022-07-29T11:55:13;37.90;41.80
54846;DHT22;53889;50.084;8.646;2022-07-29T11:57:47;38.30;40.90
54846;DHT22;53889;50.084;8.646;2022-07-29T12:00:24;37.10;41.10
54846;DHT22;53889;50.084;8.646;2022-07-29T12:02:51;37.00;41.60
54846;DHT22;53889;50.084;8.646;2022-07-29T12:05:18;37.10;41.60
54846;DHT22;53889;50.084;8.646;2022-07-29T12:07:46;37.10;41.50
54846;DHT22;53889;50.084;8.646;2022-07-29T12:10:13;37.30;41.30
54846;DHT22;53889;50.084;8.646;2022-07-29T12:12:40;37.50;41.10
54846;DHT22;53889;50.084;8.646;2022-07-29T12:15:14;36.40;42.30
54846;DHT22;53889;50.084;8.646;2022-07-29T12:17:44;36.00;42.60
54846;DHT22;53889;50.084;8.646;2022-07-29T12:20:11;36.00;42.80
54846;DHT22;53889;50.084;8.646;2022-07-29T12:22:40;36.30;42.70
54846;DHT22;53889;50.084;8.646;2022-07-29T12:25:11;36.20;42.70
54846;DHT22;53889;50.084;8.646;2022-07-29T12:27:39;37.00;42.10
54846;DHT22;53889;50.084;8.646;2022-07-29T12:30:10;38.20;41.20
54846;DHT22;53889;50.084;8.646;2022-07-29T12:32:39;38.30;40.50
54846;DHT22;53889;50.084;8.646;2022-07-29T12:35:09;38.40;40.30
54846;DHT22;53889;50.084;8.646;2022-07-29T12:37:38;38.50;40.10
54846;DHT22;53889;50.084;8.646;2022-07-29T12:40:07;38.50;40.20
54846;DHT22;53889;50.084;8.646;2022-07-29T12:42:34;38.80;40.00
54846;DHT22;53889;50.084;8.646;2022-07-29T12:45:02;39.00;40.00
54846;DHT22;53889;50.084;8.646;2022-07-29T12:47:28;38.60;40.00
54846;DHT22;53889;50.084;8.646;2022-07-29T12:50:10;38.40;40.20
54846;DHT22;53889;50.084;8.646;2022-07-29T12:52:37;38.10;40.40
54846;DHT22;53889;50.084;8.646;2022-07-29T12:55:04;37.60;40.80
54846;DHT22;53889;50.084;8.646;2022-07-29T12:57:32;36.90;41.50
54846;DHT22;53889;50.084;8.646;2022-07-29T13:00:11;35.30;43.70
54846;DHT22;53889;50.084;8.646;2022-07-29T13:02:39;35.20;43.30
54846;DHT22;53889;50.084;8.646;2022-07-29T13:05:08;35.70;42.80
54846;DHT22;53889;50.084;8.646;2022-07-29T13:07:36;35.70;42.80
54846;DHT22;53889;50.084;8.646;2022-07-29T13:10:12;35.40;42.90
54846;DHT22;53889;50.084;8.646;2022-07-29T13:12:39;34.80;43.40
54846;DHT22;53889;50.084;8.646;2022-07-29T13:15:26;34.10;44.20
54846;DHT22;53889;50.084;8.646;2022-07-29T13:17:53;34.50;44.00
54846;DHT22;53889;50.084;8.646;2022-07-29T13:20:24;34.80;43.60
54846;DHT22;53889;50.084;8.646;2022-07-29T13:22:53;34.20;44.00
54846;DHT22;53889;50.084;8.646;2022-07-29T13:25:24;33.50;44.80
54846;DHT22;53889;50.084;8.646;2022-07-29T13:27:51;33.60;45.10
54846;DHT22;53889;50.084;8.646;2022-07-29T13:30:20;33.90;44.70
54846;DHT22;53889;50.084;8.646;2022-07-29T13:32:47;34.10;44.50
54846;DHT22;53889;50.084;8.646;2022-07-29T13:35:14;33.80;44.80
54846;DHT22;53889;50.084;8.646;2022-07-29T13:37:43;31.80;44.30
54846;DHT22;53889;50.084;8.646;2022-07-29T13:40:11;33.30;45.40
54846;DHT22;53889;50.084;8.646;2022-07-29T13:42:38;33.20;45.30
54846;DHT22;53889;50.084;8.646;2022-07-29T13:45:06;33.40;45.20
54846;DHT22;53889;50.084;8.646;2022-07-29T13:47:33;33.60;45.00
54846;DHT22;53889;50.084;8.646;2022-07-29T13:50:00;33.60;44.90
54846;DHT22;53889;50.084;8.646;2022-07-29T13:52:27;33.60;44.30
54846;DHT22;53889;50.084;8.646;2022-07-29T13:54:55;33.60;44.90
54846;DHT22;53889;50.084;8.646;2022-07-29T13:57:22;33.70;44.70
54846;DHT22;53889;50.084;8.646;2022-07-29T13:59:49;33.60;44.80
54846;DHT22;53889;50.084;8.646;2022-07-29T14:02:16;33.30;44.70
54846;DHT22;53889;50.084;8.646;2022-07-29T14:04:43;33.20;45.20
54846;DHT22;53889;50.084;8.646;2022-07-29T14:07:10;33.20;45.30
54846;DHT22;53889;50.084;8.646;2022-07-29T14:09:36;33.20;45.30
54846;DHT22;53889;50.084;8.646;2022-07-29T14:12:05;33.10;45.50
54846;DHT22;53889;50.084;8.646;2022-07-29T14:14:32;33.00;46.00
54846;DHT22;53889;50.084;8.646;2022-07-29T14:16:59;33.00;45.50
54846;DHT22;53889;50.084;8.646;2022-07-29T14:19:26;33.00;45.70
54846;DHT22;53889;50.084;8.646;2022-07-29T14:21:52;33.00;45.80
54846;DHT22;53889;50.084;8.646;2022-07-29T14:24:19;33.10;45.80
54846;DHT22;53889;50.084;8.646;2022-07-29T14:26:46;33.00;45.60
54846;DHT22;53889;50.084;8.646;2022-07-29T14:29:14;32.70;45.90
54846;DHT22;53889;50.084;8.646;2022-07-29T14:31:41;32.60;46.10
54846;DHT22;53889;50.084;8.646;2022-07-29T14:34:08;32.30;46.70
54846;DHT22;53889;50.084;8.646;2022-07-29T14:36:35;32.10;47.00
54846;DHT22;53889;50.084;8.646;2022-07-29T14:39:02;31.80;47.70
54846;DHT22;53889;50.084;8.646;2022-07-29T14:41:29;31.70;48.80
54846;DHT22;53889;50.084;8.646;2022-07-29T14:43:56;31.40;50.30
54846;DHT22;53889;50.084;8.646;2022-07-29T14:46:24;31.30;52.30
54846;DHT22;53889;50.084;8.646;2022-07-29T14:48:51;31.50;53.20
54846;DHT22;53889;50.084;8.646;2022-07-29T14:51:17;31.50;52.40
54846;DHT22;53889;50.084;8.646;2022-07-29T14:53:44;31.50;51.50
54846;DHT22;53889;50.084;8.646;2022-07-29T14:56:11;31.70;51.70
54846;DHT22;53889;50.084;8.646;2022-07-29T14:58:38;31.60;52.10
54846;DHT22;53889;50.084;8.646;2022-07-29T15:01:04;31.60;52.10
54846;DHT22;53889;50.084;8.646;2022-07-29T15:03:33;31.50;51.90
54846;DHT22;53889;50.084;8.646;2022-07-29T15:05:59;31.30;51.50
54846;DHT22;53889;50.084;8.646;2022-07-29T15:08:27;31.20;51.80
54846;DHT22;53889;50.084;8.646;2022-07-29T15:10:55;30.90;52.50
54846;DHT22;53889;50.084;8.646;2022-07-29T15:13:22;30.50;53.40
54846;DHT22;53889;50.084;8.646;2022-07-29T15:15:49;30.50;53.60
54846;DHT22;53889;50.084;8.646;2022-07-29T15:18:17;30.50;53.70
54846;DHT22;53889;50.084;8.646;2022-07-29T15:20:45;30.80;53.40
54846;DHT22;53889;50.084;8.646;2022-07-29T15:23:12;30.90;53.10
54846;DHT22;53889;50.084;8.646;2022-07-29T15:25:39;30.90;52.90
54846;DHT22;53889;50.084;8.646;2022-07-29T15:28:06;30.90;52.00
54846;DHT22;53889;50.084;8.646;2022-07-29T15:30:34;30.80;52.10
54846;DHT22;53889;50.084;8.646;2022-07-29T15:33:06;30.90;52.10
54846;DHT22;53889;50.084;8.646;2022-07-29T15:35:33;31.10;51.30
54846;DHT22;53889;50.084;8.646;2022-07-29T15:38:01;31.30;50.70
54846;DHT22;53889;50.084;8.646;2022-07-29T15:40:28;31.30;50.00
54846;DHT22;53889;50.084;8.646;2022-07-29T15:42:55;31.30;49.90
54846;DHT22;53889;50.084;8.646;2022-07-29T15:45:22;31.40;49.80
54846;DHT22;53889;50.084;8.646;2022-07-29T15:47:49;31.30;49.80
54846;DHT22;53889;50.084;8.646;2022-07-29T15:50:16;31.30;49.40
54846;DHT22;53889;50.084;8.646;2022-07-29T15:52:44;31.10;49.60
54846;DHT22;53889;50.084;8.646;2022-07-29T15:55:12;31.30;49.80
54846;DHT22;53889;50.084;8.646;2022-07-29T15:57:40;31.40;49.00
54846;DHT22;53889;50.084;8.646;2022-07-29T16:00:08;31.50;48.90
54846;DHT22;53889;50.084;8.646;2022-07-29T16:02:35;31.20;49.00
54846;DHT22;53889;50.084;8.646;2022-07-29T16:05:02;31.00;49.40
54846;DHT22;53889;50.084;8.646;2022-07-29T16:07:29;30.80;49.50
54846;DHT22;53889;50.084;8.646;2022-07-29T16:09:56;30.80;49.00
54846;DHT22;53889;50.084;8.646;2022-07-29T16:12:24;30.60;47.60
54846;DHT22;53889;50.084;8.646;2022-07-29T16:14:50;30.50;48.20
54846;DHT22;53889;50.084;8.646;2022-07-29T16:17:18;30.30;47.10
54846;DHT22;53889;50.084;8.646;2022-07-29T16:19:44;30.00;46.50
54846;DHT22;53889;50.084;8.646;2022-07-29T16:22:11;29.80;47.20
54846;DHT22;53889;50.084;8.646;2022-07-29T16:24:38;29.80;47.70
54846;DHT22;53889;50.084;8.646;2022-07-29T16:27:06;29.90;48.10
54846;DHT22;53889;50.084;8.646;2022-07-29T16:29:34;29.90;49.00
54846;DHT22;53889;50.084;8.646;2022-07-29T16:32:02;29.30;57.00
54846;DHT22;53889;50.084;8.646;2022-07-29T16:34:28;28.60;60.60
54846;DHT22;53889;50.084;8.646;2022-07-29T16:36:55;27.90;62.90
54846;DHT22;53889;50.084;8.646;2022-07-29T16:39:22;27.60;63.70
54846;DHT22;53889;50.084;8.646;2022-07-29T16:41:48;27.50;64.30
54846;DHT22;53889;50.084;8.646;2022-07-29T16:44:15;27.60;64.20
54846;DHT22;53889;50.084;8.646;2022-07-29T16:46:44;27.70;64.70
54846;DHT22;53889;50.084;8.646;2022-07-29T16:49:11;27.50;65.20
54846;DHT22;53889;50.084;8.646;2022-07-29T16:51:38;27.20;65.80
54846;DHT22;53889;50.084;8.646;2022-07-29T16:54:04;27.10;66.60
54846;DHT22;53889;50.084;8.646;2022-07-29T16:56:33;27.10;66.80
54846;DHT22;53889;50.084;8.646;2022-07-29T16:59:00;27.00;67.30
54846;DHT22;53889;50.084;8.646;2022-07-29T17:01:26;26.80;68.00
54846;DHT22;53889;50.084;8.646;2022-07-29T17:03:54;26.60;68.90
54846;DHT22;53889;50.084;8.646;2022-07-29T17:06:34;26.60;69.10
54846;DHT22;53889;50.084;8.646;2022-07-29T17:09:02;26.40;69.10
54846;DHT22;53889;50.084;8.646;2022-07-29T17:11:29;26.20;69.00
54846;DHT22;53889;50.084;8.646;2022-07-29T17:13:56;26.30;69.10
54846;DHT22;53889;50.084;8.646;2022-07-29T17:16:24;26.40;68.80
54846;DHT22;53889;50.084;8.646;2022-07-29T17:18:50;26.40;68.60
54846;DHT22;53889;50.084;8.646;2022-07-29T17:21:19;26.30;68.90
54846;DHT22;53889;50.084;8.646;2022-07-29T17:23:46;26.10;69.20
54846;DHT22;53889;50.084;8.646;2022-07-29T17:26:13;26.00;69.20
54846;DHT22;53889;50.084;8.646;2022-07-29T17:28:40;25.70;69.40
54846;DHT22;53889;50.084;8.646;2022-07-29T17:31:07;25.80;69.90
54846;DHT22;53889;50.084;8.646;2022-07-29T17:33:34;25.70;69.90
54846;DHT22;53889;50.084;8.646;2022-07-29T17:36:01;25.70;70.10
54846;DHT22;53889;50.084;8.646;2022-07-29T17:38:46;25.60;70.60
54846;DHT22;53889;50.084;8.646;2022-07-29T17:41:13;25.50;70.60
54846;DHT22;53889;50.084;8.646;2022-07-29T17:43:40;25.90;69.50
54846;DHT22;53889;50.084;8.646;2022-07-29T17:46:07;25.60;68.80
54846;DHT22;53889;50.084;8.646;2022-07-29T17:48:34;25.60;68.70
54846;DHT22;53889;50.084;8.646;2022-07-29T17:51:01;25.60;69.10
54846;DHT22;53889;50.084;8.646;2022-07-29T17:53:28;25.50;68.90
54846;DHT22;53889;50.084;8.646;2022-07-29T17:55:56;25.40;69.50
54846;DHT22;53889;50.084;8.646;2022-07-29T17:58:23;25.40;69.30
54846;DHT22;53889;50.084;8.646;2022-07-29T18:00:50;25.30;69.80
54846;DHT22;53889;50.084;8.646;2022-07-29T18:03:17;25.30;70.80
54846;DHT22;53889;50.084;8.646;2022-07-29T18:05:44;25.20;72.80
54846;DHT22;53889;50.084;8.646;2022-07-29T18:08:10;24.90;75.20
54846;DHT22;53889;50.084;8.646;2022-07-29T18:10:37;24.70;76.90
54846;DHT22;53889;50.084;8.646;2022-07-29T18:13:07;24.40;78.10
54846;DHT22;53889;50.084;8.646;2022-07-29T18:15:33;24.10;80.20
54846;DHT22;53889;50.084;8.646;2022-07-29T18:18:00;23.70;81.70